createdAt,value
2018-10-05T00:00:06.180Z,12.78
2018-10-05T00:01:06.140Z,12.82
2018-10-05T00:02:06.104Z,12.73
2018-10-05T00:03:06.060Z,12.78
2018-10-05T00:04:06.030Z,12.67
2018-10-05T00:05:05.990Z,12.70
2018-10-05T00:06:05.954Z,12.65
2018-10-05T00:07:05.916Z,12.62
2018-10-05T00:08:05.872Z,12.61
2018-10-05T00:09:05.838Z,12.62
2018-10-05T00:10:05.807Z,12.58
2018-10-05T00:11:05.759Z,12.70
2018-10-05T00:12:05.734Z,12.61
2018-10-05T00:13:05.688Z,12.67
2018-10-05T00:14:05.650Z,12.61
2018-10-05T00:15:05.619Z,12.67
2018-10-05T00:16:05.572Z,12.58
2018-10-05T00:17:05.537Z,12.62
2018-10-05T00:18:05.500Z,12.58
2018-10-05T00:19:05.464Z,12.58
2018-10-05T00:20:05.422Z,12.58
2018-10-05T00:21:05.392Z,12.57
2018-10-05T00:22:05.344Z,12.55
2018-10-05T00:23:05.306Z,12.54
2018-10-05T00:24:05.279Z,12.50
2018-10-05T00:25:05.244Z,12.43
2018-10-05T00:26:05.196Z,12.42
2018-10-05T00:27:05.162Z,12.37
2018-10-05T00:28:05.122Z,12.42
2018-10-05T00:29:05.083Z,12.36
2018-10-05T00:30:05.045Z,12.39
2018-10-05T00:31:05.007Z,12.35
2018-10-05T00:32:04.977Z,12.31
2018-10-05T00:33:04.938Z,12.31
2018-10-05T00:34:04.896Z,12.37
2018-10-05T00:35:04.856Z,12.28
2018-10-05T00:36:04.824Z,12.32
2018-10-05T00:37:04.788Z,12.28
2018-10-05T00:38:04.789Z,12.27
2018-10-05T00:39:04.734Z,12.25
2018-10-05T00:40:04.668Z,12.25
2018-10-05T00:41:04.644Z,12.29
2018-10-05T00:42:04.593Z,12.18
2018-10-05T00:43:04.556Z,12.20
2018-10-05T00:44:04.524Z,12.20
2018-10-05T00:45:04.481Z,12.12
2018-10-05T00:46:04.452Z,12.21
2018-10-05T00:47:04.415Z,12.20
2018-10-05T00:48:04.369Z,12.07
2018-10-05T00:49:04.336Z,12.13
2018-10-05T00:50:04.295Z,12.09
2018-10-05T00:51:04.261Z,12.18
2018-10-05T00:52:04.218Z,12.15
2018-10-05T00:53:04.217Z,12.00
2018-10-05T00:54:04.143Z,12.02
2018-10-05T00:55:04.103Z,11.97
2018-10-05T00:56:04.074Z,12.00
2018-10-05T00:57:04.035Z,11.94
2018-10-05T00:58:03.993Z,11.88
2018-10-05T00:59:03.960Z,11.73
2018-10-05T01:00:03.912Z,11.78
2018-10-05T01:01:03.879Z,11.87
2018-10-05T01:02:03.839Z,11.72
2018-10-05T01:03:03.799Z,11.72
2018-10-05T01:04:03.773Z,11.73
2018-10-05T01:05:03.729Z,11.70
2018-10-05T01:06:03.690Z,11.69
2018-10-05T01:07:03.652Z,11.66
2018-10-05T01:08:03.622Z,11.68
2018-10-05T01:09:03.578Z,11.72
2018-10-05T01:10:03.544Z,11.63
2018-10-05T01:11:03.510Z,11.70
2018-10-05T01:12:03.460Z,11.75
2018-10-05T01:13:03.427Z,11.72
2018-10-05T01:14:03.387Z,11.68
2018-10-05T01:15:03.345Z,11.72
2018-10-05T01:16:03.315Z,11.63
2018-10-05T01:17:03.276Z,11.68
2018-10-05T01:18:03.240Z,11.59
2018-10-05T01:19:03.204Z,11.63
2018-10-05T01:20:03.165Z,11.59
2018-10-05T01:21:03.128Z,11.62
2018-10-05T01:22:03.088Z,11.54
2018-10-05T01:23:03.052Z,11.52
2018-10-05T01:24:03.007Z,11.48
2018-10-05T01:25:02.974Z,11.54
2018-10-05T01:26:02.932Z,11.48
2018-10-05T01:27:02.894Z,11.48
2018-10-05T01:28:02.862Z,11.44
2018-10-05T01:29:02.822Z,11.41
2018-10-05T01:30:02.785Z,11.26
2018-10-05T01:31:02.748Z,11.33
2018-10-05T01:32:02.705Z,11.23
2018-10-05T01:33:02.667Z,11.26
2018-10-05T01:34:02.629Z,11.17
2018-10-05T01:35:02.590Z,11.19
2018-10-05T01:36:02.563Z,11.19
2018-10-05T01:37:02.522Z,11.25
2018-10-05T01:38:02.486Z,11.18
2018-10-05T01:39:02.445Z,11.19
2018-10-05T01:40:02.409Z,11.22
2018-10-05T01:41:02.368Z,11.22
2018-10-05T01:42:02.336Z,11.25
2018-10-05T01:43:02.290Z,11.19
2018-10-05T01:44:02.249Z,11.26
2018-10-05T01:45:02.220Z,11.18
2018-10-05T01:46:02.175Z,11.22
2018-10-05T01:47:02.139Z,11.12
2018-10-05T01:48:02.097Z,11.10
2018-10-05T01:49:02.064Z,11.07
2018-10-05T01:50:02.022Z,11.10
2018-10-05T01:51:01.981Z,11.07
2018-10-05T01:52:01.975Z,11.07
2018-10-05T01:53:01.916Z,11.07
2018-10-05T01:54:01.871Z,11.07
2018-10-05T01:55:01.832Z,11.12
2018-10-05T01:56:01.799Z,11.10
2018-10-05T01:57:01.758Z,11.05
2018-10-05T01:58:01.723Z,11.12
2018-10-05T01:59:01.682Z,11.05
2018-10-05T02:00:01.644Z,11.10
2018-10-05T02:01:01.603Z,11.07
2018-10-05T02:02:01.564Z,11.08
2018-10-05T02:03:01.527Z,10.99
2018-10-05T02:04:01.495Z,11.00
2018-10-05T02:05:01.458Z,11.08
2018-10-05T02:06:01.417Z,11.05
2018-10-05T02:07:01.382Z,10.92
2018-10-05T02:08:01.338Z,10.90
2018-10-05T02:09:01.297Z,11.02
2018-10-05T02:10:01.265Z,11.04
2018-10-05T02:11:01.228Z,10.92
2018-10-05T02:12:01.183Z,11.00
2018-10-05T02:13:01.147Z,11.02
2018-10-05T02:14:01.106Z,10.99
2018-10-05T02:15:01.069Z,11.02
2018-10-05T02:16:01.039Z,11.12
2018-10-05T02:17:00.994Z,11.07
2018-10-05T02:18:00.964Z,11.08
2018-10-05T02:19:00.923Z,11.08
2018-10-05T02:20:00.876Z,10.96
2018-10-05T02:21:00.840Z,10.99
2018-10-05T02:22:00.802Z,10.94
2018-10-05T02:23:00.783Z,10.96
2018-10-05T02:24:00.730Z,10.90
2018-10-05T02:25:00.689Z,10.94
2018-10-05T02:26:00.650Z,10.89
2018-10-05T02:27:00.613Z,11.02
2018-10-05T02:28:00.623Z,11.10
2018-10-05T02:29:00.534Z,11.08
2018-10-05T02:30:00.497Z,11.12
2018-10-05T02:31:00.465Z,11.10
2018-10-05T02:32:00.416Z,11.04
2018-10-05T02:33:00.448Z,10.96
2018-10-05T02:34:00.341Z,11.04
2018-10-05T02:35:00.301Z,10.97
2018-10-05T02:36:00.271Z,10.96
2018-10-05T02:37:00.231Z,11.08
2018-10-05T02:38:00.190Z,11.07
2018-10-05T02:39:00.157Z,11.19
2018-10-05T02:40:00.111Z,11.08
2018-10-05T02:41:00.080Z,11.00
2018-10-05T02:42:00.045Z,11.07
2018-10-05T02:42:59.999Z,10.99
2018-10-05T02:43:59.960Z,11.11
2018-10-05T02:44:59.921Z,11.07
2018-10-05T02:45:59.880Z,10.94
2018-10-05T02:46:59.846Z,10.89
2018-10-05T02:47:59.807Z,10.90
2018-10-05T02:48:59.770Z,10.93
2018-10-05T02:49:59.732Z,10.90
2018-10-05T02:50:59.692Z,10.92
2018-10-05T02:51:59.651Z,10.94
2018-10-05T02:52:59.613Z,10.89
2018-10-05T02:53:59.572Z,10.89
2018-10-05T02:54:59.545Z,10.89
2018-10-05T02:55:59.507Z,10.89
2018-10-05T02:56:59.464Z,10.79
2018-10-05T02:57:59.425Z,10.84
2018-10-05T02:58:59.380Z,10.84
2018-10-05T02:59:59.348Z,10.84
2018-10-05T03:00:59.311Z,10.84
2018-10-05T03:01:59.745Z,10.81
2018-10-05T03:02:59.233Z,10.89
2018-10-05T03:03:59.189Z,10.79
2018-10-05T03:04:59.157Z,10.81
2018-10-05T03:05:59.113Z,10.86
2018-10-05T03:06:59.076Z,10.84
2018-10-05T03:07:59.038Z,10.82
2018-10-05T03:08:59.048Z,10.86
2018-10-05T03:09:58.963Z,10.79
2018-10-05T03:10:58.922Z,10.84
2018-10-05T03:11:58.879Z,10.87
2018-10-05T03:12:58.846Z,10.87
2018-10-05T03:13:58.808Z,10.78
2018-10-05T03:14:58.770Z,10.79
2018-10-05T03:15:58.732Z,10.79
2018-10-05T03:16:58.688Z,10.93
2018-10-05T03:17:58.654Z,10.84
2018-10-05T03:18:58.611Z,10.84
2018-10-05T03:19:58.641Z,10.81
2018-10-05T03:20:58.537Z,10.87
2018-10-05T03:21:58.501Z,10.81
2018-10-05T03:22:58.463Z,10.82
2018-10-05T03:23:58.416Z,10.84
2018-10-05T03:24:58.383Z,10.87
2018-10-05T03:25:58.341Z,10.86
2018-10-05T03:26:58.299Z,10.86
2018-10-05T03:27:58.271Z,10.93
2018-10-05T03:28:58.227Z,10.86
2018-10-05T03:29:58.188Z,10.84
2018-10-05T03:30:58.149Z,10.92
2018-10-05T03:31:58.116Z,10.82
2018-10-05T03:32:58.077Z,10.89
2018-10-05T03:33:58.033Z,10.81
2018-10-05T03:34:58.003Z,10.96
2018-10-05T03:35:57.955Z,10.89
2018-10-05T03:36:57.919Z,10.86
2018-10-05T03:37:57.880Z,10.87
2018-10-05T03:38:57.838Z,10.89
2018-10-05T03:39:57.808Z,10.87
2018-10-05T03:40:57.768Z,10.97
2018-10-05T03:41:57.726Z,10.87
2018-10-05T03:42:57.693Z,10.90
2018-10-05T03:43:57.648Z,10.92
2018-10-05T03:44:57.609Z,10.92
2018-10-05T03:45:57.573Z,10.87
2018-10-05T03:46:57.534Z,10.82
2018-10-05T03:47:57.495Z,10.89
2018-10-05T03:48:57.464Z,10.81
2018-10-05T03:49:57.418Z,10.81
2018-10-05T03:50:57.378Z,10.89
2018-10-05T03:51:57.341Z,10.78
2018-10-05T03:52:57.303Z,10.86
2018-10-05T03:53:57.262Z,10.92
2018-10-05T04:06:56.187Z,10.74
2018-10-05T04:07:56.097Z,10.72
2018-10-05T04:08:56.050Z,10.71
2018-10-05T04:09:56.009Z,10.67
2018-10-05T04:10:55.965Z,10.69
2018-10-05T04:11:55.937Z,10.71
2018-10-05T04:12:55.900Z,10.72
2018-10-05T04:13:55.844Z,10.72
2018-10-05T04:14:55.802Z,10.74
2018-10-05T04:15:55.764Z,10.74
2018-10-05T04:16:55.732Z,10.72
2018-10-05T04:17:55.696Z,10.72
2018-10-05T04:18:55.648Z,10.72
2018-10-05T04:19:55.602Z,10.75
2018-10-05T04:20:55.560Z,10.68
2018-10-05T04:21:55.525Z,10.71
2018-10-05T04:22:55.493Z,10.74
2018-10-05T04:23:55.450Z,10.78
2018-10-05T04:24:55.410Z,10.72
2018-10-05T04:25:55.370Z,10.72
2018-10-05T04:26:55.329Z,10.69
2018-10-05T04:27:55.286Z,10.72
2018-10-05T04:28:55.246Z,10.67
2018-10-05T04:29:55.216Z,10.74
2018-10-05T04:30:55.170Z,10.72
2018-10-05T04:31:55.131Z,10.74
2018-10-05T04:32:55.089Z,10.68
2018-10-05T04:33:55.056Z,10.71
2018-10-05T04:34:55.013Z,10.69
2018-10-05T04:35:54.980Z,10.67
2018-10-05T04:36:54.942Z,10.72
2018-10-05T04:37:54.901Z,10.68
2018-10-05T04:38:54.858Z,10.76
2018-10-05T04:39:54.817Z,10.78
2018-10-05T04:40:54.787Z,10.71
2018-10-05T04:41:54.741Z,10.72
2018-10-05T04:42:54.703Z,10.69
2018-10-05T04:43:54.665Z,10.72
2018-10-05T04:44:54.631Z,10.74
2018-10-05T04:45:54.583Z,10.72
2018-10-05T04:46:54.544Z,10.71
2018-10-05T04:47:54.509Z,10.71
2018-10-05T04:48:54.471Z,10.69
2018-10-05T04:49:54.433Z,10.76
2018-10-05T04:50:54.393Z,10.76
2018-10-05T04:51:54.352Z,10.72
2018-10-05T04:52:54.310Z,10.75
2018-10-05T04:53:54.272Z,10.68
2018-10-05T04:54:54.235Z,10.75
2018-10-05T04:55:54.201Z,10.68
2018-10-05T04:56:54.182Z,10.63
2018-10-05T04:57:54.132Z,10.61
2018-10-05T04:58:54.086Z,10.63
2018-10-05T04:59:54.040Z,10.60
2018-10-05T05:00:54.001Z,10.64
2018-10-05T05:01:53.968Z,10.69
2018-10-05T05:02:53.932Z,10.68
2018-10-05T05:03:53.887Z,10.57
2018-10-05T05:04:53.849Z,10.60
2018-10-05T05:05:53.809Z,10.56
2018-10-05T05:06:53.772Z,10.49
2018-10-05T05:07:53.737Z,10.49
2018-10-05T05:08:53.696Z,10.53
2018-10-05T05:09:53.663Z,10.54
2018-10-05T05:10:53.622Z,10.51
2018-10-05T05:11:53.576Z,10.46
2018-10-05T05:12:53.549Z,10.48
2018-10-05T05:13:53.497Z,10.38
2018-10-05T05:14:53.469Z,10.37
2018-10-05T05:15:53.429Z,10.38
2018-10-05T05:16:53.386Z,10.38
2018-10-05T05:17:53.345Z,10.37
2018-10-05T05:18:53.310Z,10.37
2018-10-05T05:19:53.268Z,10.44
2018-10-05T05:20:53.231Z,10.40
2018-10-05T05:21:53.192Z,10.42
2018-10-05T05:22:53.165Z,10.44
2018-10-05T05:23:53.115Z,10.40
2018-10-05T05:24:53.071Z,10.48
2018-10-05T05:25:53.035Z,10.42
2018-10-05T05:26:52.998Z,10.44
2018-10-05T05:27:52.962Z,10.49
2018-10-05T05:28:52.925Z,10.51
2018-10-05T05:29:52.885Z,10.57
2018-10-05T05:30:52.842Z,10.57
2018-10-05T05:31:52.801Z,10.53
2018-10-05T05:32:52.769Z,10.56
2018-10-05T05:33:52.794Z,10.54
2018-10-05T05:34:52.686Z,10.49
2018-10-05T05:35:52.646Z,10.51
2018-10-05T05:36:52.606Z,10.49
2018-10-05T05:37:52.573Z,10.57
2018-10-05T05:38:52.532Z,10.51
2018-10-05T05:39:52.497Z,10.56
2018-10-05T05:40:52.459Z,10.57
2018-10-05T05:41:52.420Z,10.57
2018-10-05T05:42:52.383Z,10.41
2018-10-05T05:43:52.342Z,10.41
2018-10-05T05:44:52.299Z,10.40
2018-10-05T05:45:52.259Z,10.42
2018-10-05T05:46:52.256Z,10.37
2018-10-05T05:47:52.184Z,10.41
2018-10-05T05:48:52.150Z,10.41
2018-10-05T05:49:52.105Z,10.51
2018-10-05T05:50:52.066Z,10.56
2018-10-05T05:51:52.031Z,10.46
2018-10-05T05:52:51.998Z,10.44
2018-10-05T05:53:51.963Z,10.51
2018-10-05T05:54:51.913Z,10.57
2018-10-05T05:55:51.876Z,10.60
2018-10-05T05:56:51.836Z,10.57
2018-10-05T05:57:51.797Z,10.56
2018-10-05T05:58:51.759Z,10.68
2018-10-05T05:59:51.720Z,10.59
2018-10-05T06:00:51.685Z,10.64
2018-10-05T06:01:51.647Z,10.71
2018-10-05T06:02:51.604Z,10.63
2018-10-05T06:03:51.565Z,10.64
2018-10-05T06:04:51.523Z,10.63
2018-10-05T06:05:51.495Z,10.69
2018-10-05T06:06:51.448Z,10.61
2018-10-05T06:07:51.415Z,10.71
2018-10-05T06:08:51.375Z,10.61
2018-10-05T06:09:51.333Z,10.60
2018-10-05T06:10:51.293Z,10.76
2018-10-05T06:11:51.257Z,10.75
2018-10-05T06:12:51.219Z,10.69
2018-10-05T06:13:51.184Z,10.72
2018-10-05T06:14:51.142Z,10.81
2018-10-05T06:15:51.134Z,10.87
2018-10-05T06:16:51.059Z,10.87
2018-10-05T06:17:51.025Z,10.82
2018-10-05T06:18:50.985Z,10.90
2018-10-05T06:19:50.949Z,10.94
2018-10-05T06:20:50.911Z,10.87
2018-10-05T06:21:50.973Z,10.93
2018-10-05T06:22:50.837Z,10.99
2018-10-05T06:23:50.795Z,10.94
2018-10-05T06:24:50.764Z,10.99
2018-10-05T06:25:50.718Z,10.97
2018-10-05T06:26:50.685Z,10.94
2018-10-05T06:27:50.637Z,10.99
2018-10-05T06:28:50.599Z,11.10
2018-10-05T06:29:50.563Z,11.04
2018-10-05T06:30:50.608Z,11.04
2018-10-05T06:31:50.490Z,11.11
2018-10-05T06:32:50.496Z,11.07
2018-10-05T06:33:50.416Z,11.10
2018-10-05T06:34:50.369Z,11.14
2018-10-05T06:35:50.355Z,11.18
2018-10-05T06:36:50.290Z,11.17
2018-10-05T06:37:50.263Z,11.22
2018-10-05T06:38:50.216Z,11.23
2018-10-05T06:39:50.178Z,11.19
2018-10-05T06:40:50.138Z,11.23
2018-10-05T06:41:50.175Z,11.29
2018-10-05T06:42:50.060Z,11.32
2018-10-05T06:43:50.023Z,11.43
2018-10-05T06:44:49.987Z,11.40
2018-10-05T06:45:49.950Z,11.40
2018-10-05T06:46:49.913Z,11.45
2018-10-05T06:47:49.867Z,11.45
2018-10-05T06:48:49.829Z,11.50
2018-10-05T06:49:49.814Z,11.44
2018-10-05T06:50:49.753Z,11.50
2018-10-05T06:51:49.717Z,11.52
2018-10-05T06:52:49.687Z,11.48
2018-10-05T06:53:49.638Z,11.50
2018-10-05T06:54:49.601Z,11.47
2018-10-05T06:55:49.567Z,11.50
2018-10-05T06:56:49.531Z,11.52
2018-10-05T06:57:49.494Z,11.54
2018-10-05T06:58:49.452Z,11.51
2018-10-05T06:59:49.412Z,11.57
2018-10-05T07:00:49.372Z,11.59
2018-10-05T07:01:49.351Z,11.57
2018-10-05T07:02:49.301Z,11.72
2018-10-05T07:03:49.263Z,11.59
2018-10-05T07:04:49.222Z,11.68
2018-10-05T07:05:49.184Z,11.69
2018-10-05T07:06:49.149Z,11.73
2018-10-05T07:07:49.270Z,11.81
2018-10-05T07:08:49.076Z,11.80
2018-10-05T07:09:49.038Z,11.80
2018-10-05T07:10:48.997Z,11.88
2018-10-05T07:11:48.950Z,11.88
2018-10-05T07:12:48.921Z,11.86
2018-10-05T07:13:48.882Z,11.97
2018-10-05T07:14:48.840Z,12.03
2018-10-05T07:15:48.822Z,12.02
2018-10-05T07:16:48.818Z,12.03
2018-10-05T07:17:48.728Z,12.02
2018-10-05T07:18:48.690Z,12.18
2018-10-05T07:19:48.647Z,12.21
2018-10-05T07:20:48.613Z,12.17
2018-10-05T07:21:48.595Z,12.21
2018-10-05T07:22:48.534Z,12.25
2018-10-05T07:23:48.505Z,12.27
2018-10-05T07:24:48.467Z,12.35
2018-10-05T07:25:48.424Z,12.28
2018-10-05T07:26:48.382Z,12.35
2018-10-05T07:27:48.351Z,12.39
2018-10-05T07:28:48.373Z,12.46
2018-10-05T07:29:48.276Z,12.45
2018-10-05T07:30:48.237Z,12.49
2018-10-05T07:31:48.193Z,12.46
2018-10-05T07:32:48.162Z,12.62
2018-10-05T07:33:48.122Z,12.64
2018-10-05T07:34:48.106Z,12.70
2018-10-05T07:35:48.047Z,12.76
2018-10-05T07:36:48.042Z,12.83
2018-10-05T07:37:47.972Z,12.94
2018-10-05T07:38:47.943Z,13.08
2018-10-05T07:39:47.892Z,13.15
2018-10-05T07:40:47.857Z,13.41
2018-10-05T07:41:47.822Z,13.39
2018-10-05T07:42:47.814Z,13.54
2018-10-05T07:43:47.752Z,13.75
2018-10-05T07:44:47.712Z,13.68
2018-10-05T07:45:47.672Z,13.90
2018-10-05T07:46:47.629Z,13.92
2018-10-05T07:47:47.602Z,14.08
2018-10-05T07:48:47.560Z,14.10
2018-10-05T07:49:47.525Z,14.28
2018-10-05T07:50:47.492Z,14.37
2018-10-05T07:51:47.462Z,14.36
2018-10-05T07:52:47.408Z,14.51
2018-10-05T07:53:47.372Z,14.44
2018-10-05T07:54:47.331Z,14.47
2018-10-05T07:55:47.307Z,14.53
2018-10-05T07:56:47.262Z,14.63
2018-10-05T07:57:47.259Z,14.66
2018-10-05T07:58:47.186Z,14.68
2018-10-05T07:59:47.155Z,14.82
2018-10-05T08:00:47.115Z,14.94
2018-10-05T08:01:47.083Z,15.03
2018-10-05T08:02:47.050Z,15.17
2018-10-05T08:03:47.000Z,15.17
2018-10-05T08:04:46.991Z,15.25
2018-10-05T08:05:46.930Z,15.25
2018-10-05T08:06:46.890Z,15.24
2018-10-05T08:07:46.860Z,15.39
2018-10-05T08:08:46.827Z,15.44
2018-10-05T08:09:46.784Z,15.49
2018-10-05T08:10:46.750Z,15.52
2018-10-05T08:11:46.709Z,15.49
2018-10-05T08:12:46.673Z,15.46
2018-10-05T08:13:46.637Z,15.62
2018-10-05T08:14:46.606Z,15.64
2018-10-05T08:15:46.561Z,15.76
2018-10-05T08:16:46.529Z,15.77
2018-10-05T08:17:46.498Z,15.90
2018-10-05T08:18:46.453Z,15.94
2018-10-05T08:19:46.475Z,15.90
2018-10-05T08:20:46.385Z,15.95
2018-10-05T08:21:46.352Z,16.24
2018-10-05T08:22:46.317Z,16.24
2018-10-05T08:23:46.273Z,16.26
2018-10-05T08:24:46.237Z,16.26
2018-10-05T08:25:46.205Z,16.33
2018-10-05T08:26:46.166Z,16.32
2018-10-05T08:27:46.184Z,16.38
2018-10-05T08:28:46.096Z,16.39
2018-10-05T08:29:46.068Z,16.49
2018-10-05T08:30:46.025Z,16.46
2018-10-05T08:31:45.990Z,16.50
2018-10-05T08:32:45.952Z,16.64
2018-10-05T08:33:45.919Z,16.56
2018-10-05T08:34:45.890Z,16.61
2018-10-05T08:35:45.840Z,16.53
2018-10-05T08:36:45.809Z,16.68
2018-10-05T08:37:45.776Z,16.57
2018-10-05T08:38:45.736Z,16.61
2018-10-05T08:39:45.779Z,16.74
2018-10-05T08:40:45.668Z,16.78
2018-10-05T08:41:45.632Z,17.15
2018-10-05T08:42:45.597Z,17.02
2018-10-05T08:43:45.554Z,17.20
2018-10-05T08:44:45.522Z,17.23
2018-10-05T08:45:45.556Z,17.36
2018-10-05T08:46:45.458Z,17.26
2018-10-05T08:47:45.415Z,17.24
2018-10-05T08:48:45.382Z,17.22
2018-10-05T08:49:45.346Z,17.27
2018-10-05T08:50:45.311Z,17.33
2018-10-05T08:51:45.351Z,17.56
2018-10-05T08:52:45.246Z,17.56
2018-10-05T08:53:45.206Z,17.63
2018-10-05T08:54:45.173Z,17.68
2018-10-05T08:55:45.135Z,17.72
2018-10-05T08:56:45.104Z,17.63
2018-10-05T08:57:45.066Z,17.71
2018-10-05T08:58:45.032Z,17.79
2018-10-05T08:59:44.999Z,17.87
2018-10-05T09:00:44.962Z,18.00
2018-10-05T09:01:44.925Z,18.04
2018-10-05T09:02:44.893Z,18.05
2018-10-05T09:03:44.884Z,18.04
2018-10-05T09:04:44.822Z,18.08
2018-10-05T09:05:44.817Z,18.01
2018-10-05T09:06:44.764Z,18.00
2018-10-05T09:07:44.713Z,18.03
2018-10-05T09:08:44.681Z,18.07
2018-10-05T09:09:44.651Z,18.22
2018-10-05T09:10:44.610Z,18.20
2018-10-05T09:11:44.581Z,18.07
2018-10-05T09:12:44.543Z,18.11
2018-10-05T09:13:44.513Z,18.07
2018-10-05T09:14:44.485Z,18.05
2018-10-05T09:15:44.437Z,18.03
2018-10-05T09:16:44.402Z,18.00
2018-10-05T09:17:44.417Z,18.01
2018-10-05T09:18:44.336Z,17.85
2018-10-05T09:19:44.303Z,17.92
2018-10-05T09:20:44.266Z,17.97
2018-10-05T09:21:44.237Z,17.80
2018-10-05T09:22:44.193Z,17.86
2018-10-05T09:23:44.165Z,18.16
2018-10-05T09:24:44.130Z,18.04
2018-10-05T09:25:44.095Z,18.11
2018-10-05T09:26:44.061Z,18.13
2018-10-05T09:27:44.022Z,18.22
2018-10-05T09:28:43.989Z,18.07
2018-10-05T09:29:43.984Z,18.10
2018-10-05T09:30:43.967Z,18.29
2018-10-05T09:31:43.892Z,18.25
2018-10-05T09:32:43.855Z,18.28
2018-10-05T09:33:43.819Z,18.35
2018-10-05T09:34:43.786Z,18.44
2018-10-05T09:35:43.758Z,18.55
2018-10-05T09:36:43.725Z,18.74
2018-10-05T09:37:43.749Z,18.73
2018-10-05T09:38:43.651Z,18.77
2018-10-05T09:39:43.612Z,19.07
2018-10-05T09:40:43.579Z,19.12
2018-10-05T09:41:43.552Z,19.12
2018-10-05T09:42:43.511Z,19.14
2018-10-05T09:43:43.481Z,19.30
2018-10-05T09:44:43.451Z,19.18
2018-10-05T09:45:43.413Z,19.31
2018-10-05T09:46:43.383Z,19.31
2018-10-05T09:47:43.340Z,19.27
2018-10-05T09:48:43.307Z,19.36
2018-10-05T09:49:43.281Z,19.48
2018-10-05T09:50:43.247Z,19.44
2018-10-05T09:51:43.251Z,19.54
2018-10-05T09:52:43.226Z,19.62
2018-10-05T09:53:43.141Z,19.47
2018-10-05T09:54:43.103Z,19.51
2018-10-05T09:55:43.078Z,19.49
2018-10-05T09:56:43.047Z,19.59
2018-10-05T09:57:43.016Z,19.55
2018-10-05T09:58:42.975Z,19.58
2018-10-05T09:59:42.947Z,19.56
2018-10-05T10:00:42.904Z,19.39
2018-10-05T10:01:42.872Z,19.27
2018-10-05T10:02:42.884Z,19.48
2018-10-05T10:03:42.807Z,19.36
2018-10-05T10:04:42.776Z,19.34
2018-10-05T10:05:42.736Z,19.41
2018-10-05T10:06:42.702Z,19.45
2018-10-05T10:21:20.488Z,19.55
2018-10-05T10:22:20.385Z,19.86
2018-10-05T10:23:20.353Z,19.84
2018-10-05T10:24:20.313Z,19.92
2018-10-05T10:25:20.290Z,19.95
2018-10-05T10:26:20.246Z,20.03
2018-10-05T10:27:20.197Z,20.09
2018-10-05T10:28:20.178Z,20.04
2018-10-05T10:29:20.225Z,20.25
2018-10-05T10:30:20.092Z,20.25
2018-10-05T10:31:20.066Z,20.29
2018-10-05T10:32:20.025Z,20.25
2018-10-05T10:33:19.992Z,20.40
2018-10-05T10:34:19.992Z,20.39
2018-10-05T10:35:19.922Z,20.39
2018-10-05T10:36:19.886Z,20.41
2018-10-05T10:37:19.853Z,20.50
2018-10-05T10:38:19.820Z,20.52
2018-10-05T10:39:19.779Z,20.48
2018-10-05T10:40:19.747Z,20.47
2018-10-05T10:41:19.713Z,20.41
2018-10-05T10:42:19.677Z,20.52
2018-10-05T10:43:19.653Z,20.48
2018-10-05T10:44:19.618Z,20.48
2018-10-05T10:45:19.582Z,20.58
2018-10-05T10:46:19.554Z,20.52
2018-10-05T10:47:19.519Z,20.52
2018-10-05T10:48:19.557Z,20.63
2018-10-05T10:49:19.448Z,20.51
2018-10-05T10:50:19.418Z,20.69
2018-10-05T10:51:19.379Z,20.75
2018-10-05T10:52:19.347Z,20.62
2018-10-05T10:53:19.316Z,20.56
2018-10-05T10:54:19.280Z,20.60
2018-10-05T10:55:19.256Z,20.59
2018-10-05T10:56:19.270Z,20.69
2018-10-05T10:57:19.185Z,20.60
2018-10-05T10:58:19.157Z,20.62
2018-10-05T10:59:19.116Z,20.67
2018-10-05T11:00:19.084Z,20.69
2018-10-05T11:01:19.050Z,20.72
2018-10-05T11:02:19.015Z,20.69
2018-10-05T11:03:18.993Z,20.62
2018-10-05T11:04:19.010Z,20.70
2018-10-05T11:05:18.922Z,20.75
2018-10-05T11:06:18.885Z,20.75
2018-10-05T11:07:18.863Z,20.74
2018-10-05T11:08:18.825Z,20.70
2018-10-05T11:09:18.796Z,20.72
2018-10-05T11:10:18.761Z,20.77
2018-10-05T11:11:18.721Z,20.72
2018-10-05T11:12:18.691Z,20.75
2018-10-05T11:13:18.664Z,20.84
2018-10-05T11:14:18.628Z,20.80
2018-10-05T11:15:18.618Z,20.70
2018-10-05T11:16:18.568Z,20.87
2018-10-05T11:17:18.533Z,21.02
2018-10-05T11:18:18.504Z,20.99
2018-10-05T11:19:18.468Z,20.95
2018-10-05T11:20:18.434Z,21.12
2018-10-05T11:21:18.399Z,21.07
2018-10-05T11:22:18.365Z,21.17
2018-10-05T11:23:18.415Z,21.14
2018-10-05T11:24:18.305Z,21.17
2018-10-05T11:25:18.271Z,21.24
2018-10-05T11:26:18.269Z,21.36
2018-10-05T11:27:18.203Z,21.32
2018-10-05T11:28:18.173Z,21.20
2018-10-05T11:29:18.145Z,21.20
2018-10-05T11:30:18.108Z,21.27
2018-10-05T11:31:18.081Z,21.30
2018-10-05T11:32:18.046Z,21.33
2018-10-05T11:33:18.013Z,21.30
2018-10-05T11:34:17.984Z,21.35
2018-10-05T11:35:17.952Z,21.43
2018-10-05T11:36:17.916Z,21.46
2018-10-05T11:37:17.885Z,21.45
2018-10-05T11:38:17.855Z,21.45
2018-10-05T11:39:17.816Z,21.51
2018-10-05T11:40:17.787Z,21.51
2018-10-05T11:41:17.753Z,21.51
2018-10-05T11:42:17.719Z,21.46
2018-10-05T11:43:17.694Z,21.33
2018-10-05T11:44:17.660Z,21.42
2018-10-05T11:45:17.626Z,21.42
2018-10-05T11:46:17.646Z,21.43
2018-10-05T11:47:17.559Z,21.39
2018-10-05T11:48:17.531Z,21.30
2018-10-05T11:49:17.496Z,21.33
2018-10-05T11:50:17.468Z,21.45
2018-10-05T11:51:17.439Z,21.54
2018-10-05T11:52:17.420Z,21.52
2018-10-05T11:53:17.369Z,21.43
2018-10-05T11:54:17.343Z,21.58
2018-10-05T11:55:17.311Z,21.58
2018-10-05T11:56:17.279Z,21.73
2018-10-05T11:57:17.248Z,21.66
2018-10-05T11:58:17.215Z,21.55
2018-10-05T11:59:17.200Z,21.60
2018-10-05T12:00:17.146Z,21.61
2018-10-05T12:01:17.115Z,21.62
2018-10-05T12:02:17.082Z,21.60
2018-10-05T12:03:17.055Z,21.60
2018-10-05T12:04:17.026Z,21.67
2018-10-05T12:05:17.045Z,21.75
2018-10-05T12:06:16.961Z,21.79
2018-10-05T12:07:16.921Z,21.85
2018-10-05T12:08:16.901Z,21.95
2018-10-05T12:09:16.863Z,22.07
2018-10-05T12:10:16.836Z,21.99
2018-10-05T12:11:16.794Z,22.02
2018-10-05T12:12:16.803Z,21.96
2018-10-05T12:13:16.751Z,21.98
2018-10-05T12:14:16.705Z,21.95
2018-10-05T12:15:16.860Z,21.98
2018-10-05T12:16:16.899Z,21.95
2018-10-05T12:17:16.984Z,21.98
2018-10-05T12:18:18.137Z,22.13
2018-10-05T12:19:16.662Z,22.29
2018-10-05T12:20:16.577Z,22.29
2018-10-05T12:21:16.907Z,22.41
2018-10-05T12:22:16.492Z,22.38
2018-10-05T12:23:16.507Z,22.44
2018-10-05T12:24:16.509Z,22.38
2018-10-05T12:25:16.370Z,22.39
2018-10-05T12:26:16.419Z,22.29
2018-10-05T12:27:16.339Z,22.39
2018-10-05T12:28:16.858Z,22.43
2018-10-05T12:29:16.280Z,22.25
2018-10-05T12:30:16.505Z,22.25
2018-10-05T12:31:16.663Z,22.23
2018-10-05T12:32:16.659Z,22.13
2018-10-05T12:33:16.416Z,22.17
2018-10-05T12:34:16.140Z,22.20
2018-10-05T12:35:16.373Z,22.14
2018-10-05T12:36:16.603Z,22.32
2018-10-05T12:37:16.059Z,22.36
2018-10-05T12:38:16.046Z,22.35
2018-10-05T12:39:15.915Z,22.32
2018-10-05T12:40:16.113Z,22.30
2018-10-05T12:41:16.040Z,22.22
2018-10-05T12:42:15.908Z,22.11
2018-10-05T12:43:15.972Z,22.10
2018-10-05T12:44:16.054Z,22.15
2018-10-05T12:45:15.767Z,22.10
2018-10-05T12:46:21.083Z,22.11
2018-10-05T12:47:15.981Z,22.10
2018-10-05T12:48:16.371Z,22.13
2018-10-05T12:49:15.902Z,22.15
2018-10-05T12:50:15.808Z,22.13
2018-10-05T12:51:15.716Z,22.26
2018-10-05T12:52:15.684Z,22.30
2018-10-05T12:53:15.853Z,22.29
2018-10-05T12:54:15.492Z,22.41
2018-10-05T12:55:15.563Z,22.43
2018-10-05T12:56:15.581Z,22.53
2018-10-05T12:57:15.462Z,22.53
2018-10-05T12:58:16.511Z,22.48
2018-10-05T12:59:15.391Z,22.53
2018-10-05T13:00:15.571Z,22.57
2018-10-05T13:01:15.550Z,22.53
2018-10-05T13:02:15.227Z,22.45
2018-10-05T13:03:15.698Z,22.47
2018-10-05T13:04:15.390Z,22.53
2018-10-05T13:05:15.198Z,22.47
2018-10-05T13:06:15.148Z,22.59
2018-10-05T13:07:15.053Z,22.66
2018-10-05T13:08:15.040Z,22.69
2018-10-05T13:09:16.340Z,22.80
2018-10-05T13:10:22.153Z,22.70
2018-10-05T13:11:14.926Z,22.60
2018-10-05T13:13:14.975Z,22.39
2018-10-05T13:14:14.884Z,22.45
2018-10-05T13:15:14.844Z,22.54
2018-10-05T13:16:14.824Z,22.53
2018-10-05T13:17:14.966Z,22.55
2018-10-05T13:18:15.007Z,22.57